Time;durP1;ratioP1;P1;durP2;ratioP2;P2;SDS_P1;SDS_P2;PMS_P1;PMS_P2;Temp;Humidity;BMP_temperature;BMP_pressure;BME280_temperature;BME280_humidity;BME280_pressure;Samples;Min_cycle;Max_cycle;Signal;HPM_P1;HPM_P2
2021/10/12 00:00:28;;;;;;;2.53;0.70;;;11.60;91.40;;;;;;2103644;28;20031;-93
2021/10/12 00:01:48;;;;;;;1.65;0.60;;;11.60;91.40;;;;;;2099853;28;20048;-93
2021/10/12 00:03:08;;;;;;;2.63;0.65;;;11.60;91.50;;;;;;2101991;28;20036;-93
2021/10/12 00:04:27;;;;;;;2.72;0.90;;;11.60;91.50;;;;;;2098207;28;20032;-93
2021/10/12 00:05:47;;;;;;;4.30;0.90;;;11.60;91.50;;;;;;2095142;28;20498;-93
2021/10/12 00:07:07;;;;;;;3.25;0.90;;;11.60;91.50;;;;;;2100230;28;20040;-92
2021/10/12 00:08:26;;;;;;;2.65;0.70;;;11.60;91.50;;;;;;2112096;28;20048;-93
2021/10/12 00:09:46;;;;;;;2.35;0.77;;;11.60;91.50;;;;;;2096852;28;20119;-92
2021/10/12 00:11:06;;;;;;;3.25;0.90;;;11.60;91.60;;;;;;2088929;28;20052;-92
2021/10/12 00:12:25;;;;;;;1.67;0.60;;;11.60;91.60;;;;;;2104102;28;20036;-92
2021/10/12 00:13:45;;;;;;;2.15;0.70;;;11.60;91.60;;;;;;2107021;28;20111;-94
2021/10/12 00:15:06;;;;;;;2.00;0.60;;;11.60;91.60;;;;;;2106190;28;20071;-93
2021/10/12 00:16:25;;;;;;;1.60;0.70;;;11.60;91.60;;;;;;2098599;28;20020;-93
2021/10/12 00:17:45;;;;;;;2.03;0.70;;;11.60;91.60;;;;;;2090202;28;20123;-93
2021/10/12 00:19:04;;;;;;;3.53;0.80;;;11.60;91.60;;;;;;2092014;28;20103;-94
2021/10/12 00:20:24;;;;;;;3.25;0.80;;;11.60;91.60;;;;;;2078324;28;20530;-92
2021/10/12 00:21:44;;;;;;;2.47;0.80;;;11.50;91.60;;;;;;2088996;28;20037;-94
2021/10/12 00:23:07;;;;;;;2.83;0.75;;;11.60;91.70;;;;;;2076098;28;20160;-93
2021/10/12 00:24:26;;;;;;;3.65;1.00;;;11.50;91.70;;;;;;2098296;28;20082;-93
2021/10/12 00:25:46;;;;;;;3.97;0.70;;;11.50;91.70;;;;;;2092148;28;20108;-92
2021/10/12 00:27:05;;;;;;;3.65;0.98;;;11.50;91.70;;;;;;2096632;28;20040;-93
2021/10/12 00:28:24;;;;;;;2.03;0.65;;;11.50;91.70;;;;;;2100469;28;20024;-93
2021/10/12 00:29:44;;;;;;;1.80;0.60;;;11.50;92.00;;;;;;2099921;28;20037;-93
2021/10/12 00:31:03;;;;;;;4.07;0.80;;;11.50;91.70;;;;;;2113673;28;20048;-93
2021/10/12 00:32:23;;;;;;;2.15;0.77;;;11.50;91.70;;;;;;2103497;28;20036;-93
2021/10/12 00:33:42;;;;;;;4.60;0.80;;;11.50;91.70;;;;;;2099156;28;20049;-92
2021/10/12 00:35:02;;;;;;;3.88;1.00;;;11.50;91.70;;;;;;2112316;28;20057;-92
2021/10/12 00:36:22;;;;;;;4.13;0.68;;;11.50;91.80;;;;;;2103291;28;20464;-92
2021/10/12 00:37:42;;;;;;;4.05;0.80;;;11.50;91.80;;;;;;2099160;28;20029;-93
2021/10/12 00:39:02;;;;;;;3.10;0.70;;;11.50;91.80;;;;;;2102953;28;20032;-93
2021/10/12 00:40:22;;;;;;;2.38;0.80;;;11.50;91.80;;;;;;2103633;28;20420;-94
2021/10/12 00:41:42;;;;;;;1.77;0.70;;;11.50;91.80;;;;;;2100204;28;20099;-93
2021/10/12 00:43:01;;;;;;;2.60;0.73;;;11.50;91.80;;;;;;2102996;28;20040;-92
2021/10/12 00:44:21;;;;;;;3.70;0.77;;;11.50;92.10;;;;;;2107546;28;20036;-93
2021/10/12 00:45:41;;;;;;;2.72;0.75;;;11.50;91.80;;;;;;2104744;28;20052;-93
2021/10/12 00:47:02;;;;;;;2.83;0.60;;;11.50;91.80;;;;;;2109673;28;20025;-92
2021/10/12 00:48:22;;;;;;;1.55;0.70;;;11.50;91.90;;;;;;2109173;28;20160;-93
2021/10/12 00:49:41;;;;;;;3.53;0.80;;;11.50;91.90;;;;;;2109496;28;20502;-94
2021/10/12 00:51:01;;;;;;;2.95;0.77;;;11.50;91.90;;;;;;2097655;28;20132;-93
2021/10/12 00:52:20;;;;;;;3.83;0.82;;;11.50;92.10;;;;;;2100044;28;20036;-92
2021/10/12 00:53:39;;;;;;;2.35;0.70;;;11.50;91.90;;;;;;2115901;28;22337;-93
2021/10/12 00:54:59;;;;;;;2.15;0.70;;;11.50;91.90;;;;;;2096693;28;20028;-93
2021/10/12 00:56:19;;;;;;;4.05;1.05;;;11.50;91.90;;;;;;2101651;28;20063;-94
2021/10/12 00:57:39;;;;;;;4.97;0.80;;;11.50;92.00;;;;;;2088322;28;20033;-92
2021/10/12 00:58:58;;;;;;;2.58;0.70;;;11.50;91.90;;;;;;2084440;28;20041;-93
2021/10/12 01:00:18;;;;;;;1.92;0.70;;;11.50;92.00;;;;;;2101793;28;20035;-93
2021/10/12 01:01:41;;;;;;;3.67;0.98;;;11.50;92.00;;;;;;2108785;28;20048;-93
2021/10/12 01:03:01;;;;;;;2.50;0.68;;;11.50;92.00;;;;;;2108908;28;20036;-93
2021/10/12 01:04:20;;;;;;;2.97;0.75;;;11.50;92.00;;;;;;2111483;28;20490;-93
2021/10/12 01:05:41;;;;;;;2.53;0.68;;;11.50;92.00;;;;;;2107311;28;20008;-94
2021/10/12 01:07:00;;;;;;;3.00;0.60;;;11.50;92.00;;;;;;2103609;28;20037;-93
2021/10/12 01:08:19;;;;;;;2.50;0.50;;;11.50;92.00;;;;;;2099509;28;20041;-93
2021/10/12 01:09:40;;;;;;;2.88;0.70;;;11.50;92.00;;;;;;2088386;28;20119;-93
2021/10/12 01:10:59;;;;;;;2.38;0.80;;;11.50;92.10;;;;;;2095392;28;20048;-93
2021/10/12 01:12:19;;;;;;;2.40;0.95;;;11.50;92.10;;;;;;2099767;28;20048;-94
2021/10/12 01:13:39;;;;;;;2.30;0.65;;;11.50;92.10;;;;;;2101335;28;20032;-92
2021/10/12 01:14:59;;;;;;;2.03;0.70;;;11.50;92.10;;;;;;2104252;28;20028;-93
2021/10/12 01:16:18;;;;;;;3.53;0.68;;;11.40;92.00;;;;;;2091115;28;20062;-93
2021/10/12 01:17:38;;;;;;;3.35;0.80;;;11.40;92.10;;;;;;2101632;28;20115;-93
2021/10/12 01:18:59;;;;;;;2.83;0.68;;;11.50;92.10;;;;;;2108250;28;20080;-93
2021/10/12 01:20:18;;;;;;;3.70;1.00;;;11.50;92.10;;;;;;2106797;28;20032;-93
2021/10/12 01:21:41;;;;;;;3.30;1.00;;;11.50;92.10;;;;;;2115278;28;20036;-92
2021/10/12 01:23:00;;;;;;;2.72;0.70;;;11.50;92.10;;;;;;2115089;28;20032;-92
2021/10/12 01:24:20;;;;;;;3.53;1.10;;;11.40;92.10;;;;;;2115793;28;20047;-93
2021/10/12 01:25:40;;;;;;;3.67;1.00;;;11.40;92.10;;;;;;2110957;28;20044;-92
2021/10/12 01:27:00;;;;;;;3.13;0.85;;;11.40;92.10;;;;;;2117572;28;20039;-93
2021/10/12 01:28:19;;;;;;;3.22;0.80;;;11.40;92.10;;;;;;2104263;28;20048;-93
2021/10/12 01:29:39;;;;;;;3.28;0.90;;;11.40;92.10;;;;;;2101994;28;20048;-93
2021/10/12 01:30:59;;;;;;;2.42;0.80;;;11.40;92.10;;;;;;2088191;28;20041;-93
2021/10/12 01:32:18;;;;;;;2.63;0.82;;;11.40;92.20;;;;;;2101933;28;20044;-93
2021/10/12 01:33:37;;;;;;;1.67;0.82;;;11.40;92.50;;;;;;2108086;28;20059;-93
2021/10/12 01:35:00;;;;;;;3.85;0.90;;;11.40;92.20;;;;;;2093102;28;20033;-93
2021/10/12 01:36:21;;;;;;;4.30;1.15;;;11.40;92.20;;;;;;2098641;28;20036;-93
2021/10/12 01:37:41;;;;;;;4.00;1.20;;;11.40;92.20;;;;;;2097164;28;20040;-93
2021/10/12 01:39:00;;;;;;;2.70;0.90;;;11.40;92.20;;;;;;2105041;28;20044;-93
2021/10/12 01:40:19;;;;;;;2.90;1.05;;;11.40;92.20;;;;;;2105745;28;20044;-93
2021/10/12 01:41:40;;;;;;;2.40;1.10;;;11.40;92.20;;;;;;2104975;28;20052;-92
2021/10/12 01:42:59;;;;;;;2.50;1.00;;;11.40;92.20;;;;;;2104742;28;20036;-92
2021/10/12 01:44:18;;;;;;;2.40;1.08;;;11.40;92.20;;;;;;2104177;28;20096;-92
2021/10/12 01:45:38;;;;;;;4.18;1.25;;;11.40;92.30;;;;;;2108213;28;20060;-92
2021/10/12 01:46:58;;;;;;;2.28;1.10;;;11.40;92.30;;;;;;2102226;28;20036;-93
2021/10/12 01:48:17;;;;;;;2.92;1.10;;;11.40;92.30;;;;;;2104196;28;20040;-92
2021/10/12 01:49:36;;;;;;;1.85;1.13;;;11.40;92.30;;;;;;2083050;28;20053;-93
2021/10/12 01:50:55;;;;;;;3.35;1.30;;;11.40;92.30;;;;;;2089863;28;20033;-92
2021/10/12 01:52:15;;;;;;;2.55;1.23;;;11.40;92.30;;;;;;2096073;28;20493;-93
2021/10/12 01:53:34;;;;;;;2.75;1.20;;;11.40;92.30;;;;;;2095750;28;20099;-92
2021/10/12 01:54:54;;;;;;;4.63;1.23;;;11.40;92.30;;;;;;2079856;28;20516;-91
2021/10/12 01:56:13;;;;;;;2.65;1.20;;;11.40;92.30;;;;;;2097925;28;20036;-92
2021/10/12 01:57:32;;;;;;;3.08;1.33;;;11.40;92.30;;;;;;2098189;28;20036;-92
2021/10/12 01:58:51;;;;;;;2.38;1.10;;;11.40;92.30;;;;;;2104387;28;20119;-92
2021/10/12 02:00:11;;;;;;;2.45;1.23;;;11.40;92.30;;;;;;2096367;28;20044;-92
2021/10/12 02:01:31;;;;;;;3.60;1.30;;;11.40;92.30;;;;;;2109750;28;20051;-93
2021/10/12 02:02:50;;;;;;;3.33;1.67;;;11.40;92.30;;;;;;2085033;28;20109;-92
2021/10/12 02:04:10;;;;;;;3.65;1.42;;;11.30;92.30;;;;;;2100800;28;20052;-92
2021/10/12 02:05:29;;;;;;;2.65;1.40;;;11.30;92.30;;;;;;2103470;28;20485;-93
2021/10/12 02:06:49;;;;;;;3.47;1.52;;;11.30;92.40;;;;;;2116910;27;20028;-93
2021/10/12 02:08:08;;;;;;;5.35;1.50;;;11.30;92.40;;;;;;2090720;28;21536;-92
2021/10/12 02:09:27;;;;;;;3.90;1.20;;;11.30;92.40;;;;;;2092876;28;20060;-93
2021/10/12 02:10:47;;;;;;;3.63;1.83;;;11.30;92.40;;;;;;2106508;27;20028;-93
2021/10/12 02:12:07;;;;;;;3.05;1.38;;;11.30;92.40;;;;;;2106114;28;20044;-92
2021/10/12 02:13:26;;;;;;;4.75;1.60;;;11.30;92.40;;;;;;2103804;28;20044;-93
2021/10/12 02:14:45;;;;;;;3.97;1.70;;;11.30;92.40;;;;;;2099619;28;20044;-92
2021/10/12 02:16:05;;;;;;;3.13;1.48;;;11.30;92.40;;;;;;2112285;28;20036;-93
2021/10/12 02:17:25;;;;;;;3.80;1.20;;;11.30;92.40;;;;;;2104368;28;20494;-93
2021/10/12 02:18:44;;;;;;;4.38;1.40;;;11.30;92.40;;;;;;2103031;28;20036;-93
2021/10/12 02:20:06;;;;;;;4.20;1.45;;;11.30;92.40;;;;;;2108215;28;20036;-93
2021/10/12 02:21:25;;;;;;;3.30;1.27;;;11.30;92.40;;;;;;2104905;28;20048;-92
2021/10/12 02:22:45;;;;;;;3.38;1.30;;;11.30;92.40;;;;;;2091158;28;20061;-92
2021/10/12 02:24:04;;;;;;;2.90;1.20;;;11.30;92.40;;;;;;2110153;27;20397;-92
2021/10/12 02:25:24;;;;;;;3.20;1.20;;;11.30;92.40;;;;;;2108748;28;20040;-92
2021/10/12 02:26:43;;;;;;;2.67;1.20;;;11.30;92.40;;;;;;2101669;28;20122;-93
2021/10/12 02:28:04;;;;;;;4.07;1.30;;;11.30;92.40;;;;;;2095906;28;20068;-92
2021/10/12 02:29:23;;;;;;;3.88;1.48;;;11.30;92.40;;;;;;2101453;28;20040;-91
2021/10/12 02:30:43;;;;;;;3.28;1.42;;;11.30;92.40;;;;;;2095211;28;20407;-94
2021/10/12 02:32:02;;;;;;;4.63;1.45;;;11.30;92.40;;;;;;2104214;28;20048;-93
2021/10/12 02:33:22;;;;;;;2.70;1.40;;;11.30;92.40;;;;;;2110406;28;20126;-93
2021/10/12 02:34:41;;;;;;;2.85;1.20;;;11.30;92.50;;;;;;2115667;28;20481;-93
2021/10/12 02:36:01;;;;;;;2.40;1.33;;;11.30;92.50;;;;;;2107507;28;20044;-93
2021/10/12 02:37:20;;;;;;;3.60;1.20;;;11.30;92.50;;;;;;2087450;28;20041;-93
2021/10/12 02:38:40;;;;;;;3.33;1.15;;;11.30;92.50;;;;;;2104010;28;20044;-93
2021/10/12 02:40:00;;;;;;;2.97;1.05;;;11.30;92.50;;;;;;2096207;28;20040;-92
2021/10/12 02:41:19;;;;;;;4.13;1.17;;;11.30;92.40;;;;;;2095881;28;20048;-93
2021/10/12 02:42:39;;;;;;;3.63;1.15;;;11.30;92.40;;;;;;2098662;28;20036;-93
2021/10/12 02:43:59;;;;;;;3.30;1.20;;;11.30;92.50;;;;;;2104507;28;20040;-92
2021/10/12 02:45:18;;;;;;;3.47;1.02;;;11.30;92.40;;;;;;2102157;28;20274;-92
2021/10/12 02:46:37;;;;;;;3.90;1.20;;;11.30;92.50;;;;;;2092114;28;20491;-93
2021/10/12 02:47:56;;;;;;;3.53;1.00;;;11.30;92.40;;;;;;2107397;28;20040;-92
2021/10/12 02:49:15;;;;;;;2.80;1.00;;;11.30;92.50;;;;;;2117859;28;20020;-90
2021/10/12 02:50:35;;;;;;;2.30;1.00;;;11.30;92.40;;;;;;2109434;28;20044;-92
2021/10/12 02:51:54;;;;;;;3.15;0.90;;;11.30;92.50;;;;;;2095783;28;20071;-92
2021/10/12 02:53:14;;;;;;;3.45;0.90;;;11.30;92.40;;;;;;2099531;28;20044;-93
2021/10/12 02:54:34;;;;;;;2.03;0.63;;;11.30;92.40;;;;;;2112755;28;20035;-92
2021/10/12 02:55:53;;;;;;;2.67;0.90;;;11.30;92.40;;;;;;2116308;28;20044;-92
2021/10/12 02:57:12;;;;;;;2.40;0.77;;;11.20;92.40;;;;;;2107171;28;20028;-92
2021/10/12 02:58:31;;;;;;;3.00;0.77;;;11.20;92.40;;;;;;2087179;28;20406;-92
2021/10/12 02:59:50;;;;;;;1.98;0.70;;;11.20;92.50;;;;;;2085368;28;20041;-94
2021/10/12 03:01:10;;;;;;;1.65;0.60;;;11.20;92.50;;;;;;2095678;28;20063;-92
2021/10/12 03:02:29;;;;;;;1.50;0.70;;;11.20;92.50;;;;;;2099112;28;20037;-93
2021/10/12 03:03:48;;;;;;;3.35;0.82;;;11.20;92.50;;;;;;2094030;28;20040;-93
2021/10/12 03:05:08;;;;;;;3.22;0.93;;;11.20;92.50;;;;;;2109252;28;20036;-93
2021/10/12 03:06:27;;;;;;;4.63;0.90;;;11.20;92.50;;;;;;2098317;28;20040;-92
2021/10/12 03:07:46;;;;;;;2.15;0.80;;;11.20;92.50;;;;;;2105966;28;20043;-92
2021/10/12 03:09:05;;;;;;;2.65;0.93;;;11.20;92.50;;;;;;2120450;27;20047;-92
2021/10/12 03:10:24;;;;;;;2.10;0.70;;;11.20;92.50;;;;;;2111152;28;20036;-91
2021/10/12 03:11:43;;;;;;;1.38;0.70;;;11.20;92.50;;;;;;2094418;28;20044;-92
2021/10/12 03:13:02;;;;;;;2.90;0.85;;;11.20;92.50;;;;;;2099053;28;20032;-92
2021/10/12 03:14:21;;;;;;;2.03;0.57;;;11.10;92.50;;;;;;2095597;28;20052;-93
2021/10/12 03:15:43;;;;;;;1.40;0.68;;;11.20;92.50;;;;;;2112227;28;20409;-92
2021/10/12 03:17:02;;;;;;;2.08;0.75;;;11.20;92.50;;;;;;2115743;28;20114;-92
2021/10/12 03:18:21;;;;;;;2.33;0.52;;;11.20;92.50;;;;;;2112452;28;20048;-92
2021/10/12 03:19:41;;;;;;;2.65;0.80;;;11.20;92.50;;;;;;2123586;27;20047;-92
2021/10/12 03:21:00;;;;;;;2.25;0.75;;;11.20;92.50;;;;;;2123339;27;20044;-92
2021/10/12 03:22:20;;;;;;;2.78;0.80;;;11.20;92.50;;;;;;2105783;28;20040;-92
2021/10/12 03:23:39;;;;;;;2.05;0.75;;;11.20;92.50;;;;;;2112879;27;20028;-92
2021/10/12 03:24:58;;;;;;;3.08;0.80;;;11.10;92.50;;;;;;2098947;28;20044;-92
2021/10/12 03:26:17;;;;;;;2.47;0.63;;;11.20;92.50;;;;;;2099855;28;20067;-92
2021/10/12 03:27:37;;;;;;;1.95;0.52;;;11.20;92.50;;;;;;2107177;28;20119;-92
2021/10/12 03:28:57;;;;;;;3.03;0.70;;;11.10;92.50;;;;;;2107096;28;20067;-92
2021/10/12 03:30:16;;;;;;;3.10;0.68;;;11.10;92.50;;;;;;2102946;28;20505;-92
2021/10/12 03:31:36;;;;;;;2.13;0.55;;;11.10;92.50;;;;;;2105538;28;20040;-92
2021/10/12 03:32:55;;;;;;;2.30;0.50;;;11.10;92.50;;;;;;2099155;28;20044;-93
2021/10/12 03:34:14;;;;;;;1.50;0.52;;;11.10;92.50;;;;;;2091828;28;20036;-92
2021/10/12 03:35:36;;;;;;;2.40;0.50;;;11.10;92.50;;;;;;2092130;28;20036;-92
2021/10/12 03:36:57;;;;;;;2.55;0.60;;;11.10;92.50;;;;;;2101056;28;20044;-92
2021/10/12 03:38:16;;;;;;;2.47;0.68;;;11.10;92.50;;;;;;2091984;28;20033;-92
2021/10/12 03:39:35;;;;;;;1.75;0.47;;;11.10;92.50;;;;;;2095666;28;20463;-92
2021/10/12 03:40:55;;;;;;;2.78;0.50;;;11.10;92.50;;;;;;2098362;28;20033;-93
2021/10/12 03:42:15;;;;;;;1.77;0.47;;;11.10;92.50;;;;;;2103867;28;20044;-91
2021/10/12 03:43:35;;;;;;;2.67;0.40;;;11.10;92.50;;;;;;2089062;28;20033;-92
2021/10/12 03:44:54;;;;;;;3.47;0.95;;;11.10;92.60;;;;;;2092475;28;20036;-92
2021/10/12 03:46:13;;;;;;;1.73;0.50;;;11.10;92.50;;;;;;2090401;28;20064;-92
2021/10/12 03:47:33;;;;;;;2.28;0.45;;;11.10;92.50;;;;;;2090848;28;20313;-92
2021/10/12 03:48:52;;;;;;;1.60;0.65;;;11.10;92.80;;;;;;2094803;28;20111;-92
2021/10/12 03:50:12;;;;;;;1.25;0.52;;;11.10;92.60;;;;;;2098517;28;20028;-92
2021/10/12 03:51:31;;;;;;;1.50;0.60;;;11.00;92.50;;;;;;2104522;28;20032;-93
2021/10/12 03:52:50;;;;;;;1.67;0.60;;;11.00;92.60;;;;;;2111948;28;20035;-92
2021/10/12 03:54:14;;;;;;;1.92;0.40;;;11.00;92.60;;;;;;2099861;28;20037;-92
2021/10/12 03:55:33;;;;;;;3.80;0.60;;;11.00;92.60;;;;;;2100155;28;20029;-91
2021/10/12 03:56:52;;;;;;;2.83;0.60;;;11.10;92.60;;;;;;2108598;28;20028;-93
2021/10/12 03:58:12;;;;;;;1.95;0.60;;;11.00;92.60;;;;;;2105698;28;20126;-93
2021/10/12 03:59:31;;;;;;;2.67;0.77;;;11.10;92.60;;;;;;2102415;28;20040;-92
2021/10/12 04:00:50;;;;;;;2.67;0.60;;;11.00;92.60;;;;;;2098971;28;20037;-92
2021/10/12 04:02:09;;;;;;;2.95;0.65;;;11.00;92.60;;;;;;2090397;28;20041;-92
2021/10/12 04:03:28;;;;;;;2.67;0.65;;;11.00;92.60;;;;;;2090487;28;20044;-92
2021/10/12 04:04:48;;;;;;;1.95;0.80;;;11.00;92.60;;;;;;2087103;28;20037;-92
2021/10/12 04:06:07;;;;;;;1.30;0.52;;;11.00;92.60;;;;;;2078530;28;20028;-93
2021/10/12 04:07:27;;;;;;;4.53;0.73;;;11.00;92.60;;;;;;2100421;28;20043;-92
2021/10/12 04:08:47;;;;;;;1.95;0.52;;;11.00;92.60;;;;;;2100610;28;20040;-92
2021/10/12 04:10:06;;;;;;;3.38;0.77;;;11.00;92.60;;;;;;2103109;28;20044;-91
2021/10/12 04:11:26;;;;;;;3.03;0.70;;;11.00;92.60;;;;;;2104970;28;20461;-92
2021/10/12 04:12:45;;;;;;;2.05;0.93;;;11.00;92.60;;;;;;2105101;28;20509;-92
2021/10/12 04:14:04;;;;;;;1.77;0.65;;;11.00;92.60;;;;;;2102237;28;20044;-92
2021/10/12 04:15:24;;;;;;;2.53;0.60;;;11.00;92.60;;;;;;2098204;28;20049;-92
2021/10/12 04:16:43;;;;;;;2.03;0.75;;;11.00;92.60;;;;;;2091518;28;20036;-92
2021/10/12 04:18:03;;;;;;;3.45;0.80;;;11.00;92.60;;;;;;2106158;28;20036;-93
2021/10/12 04:19:22;;;;;;;1.73;0.65;;;11.00;92.60;;;;;;2106846;28;20498;-92
2021/10/12 04:20:41;;;;;;;2.38;0.52;;;11.00;92.60;;;;;;2107042;28;20032;-92
2021/10/12 04:22:00;;;;;;;1.85;0.50;;;11.00;92.60;;;;;;2107449;28;20028;-94
2021/10/12 04:23:19;;;;;;;1.75;0.52;;;11.00;92.60;;;;;;2117947;28;20032;-91
2021/10/12 04:24:39;;;;;;;1.60;0.60;;;11.00;92.60;;;;;;2098436;28;20041;-92
2021/10/12 04:25:58;;;;;;;3.72;0.80;;;11.00;92.70;;;;;;2106479;28;20139;-92
2021/10/12 04:27:18;;;;;;;2.55;0.60;;;11.00;92.60;;;;;;2121119;28;20067;-93
2021/10/12 04:28:37;;;;;;;2.80;0.80;;;11.00;92.60;;;;;;2116910;28;20123;-92
2021/10/12 04:29:57;;;;;;;3.65;0.75;;;11.00;92.60;;;;;;2112858;28;20031;-92
2021/10/12 04:31:16;;;;;;;2.22;0.60;;;11.00;92.60;;;;;;2110196;28;20059;-92
2021/10/12 04:32:35;;;;;;;1.88;0.77;;;11.00;92.60;;;;;;2111813;28;20417;-92
2021/10/12 04:33:54;;;;;;;1.95;0.70;;;11.00;92.60;;;;;;2097483;28;20616;-92
2021/10/12 04:35:14;;;;;;;1.65;0.60;;;11.00;92.60;;;;;;2091413;28;20036;-93
2021/10/12 04:36:33;;;;;;;2.25;0.70;;;11.00;92.70;;;;;;2097580;28;20044;-92
2021/10/12 04:37:52;;;;;;;3.17;0.70;;;11.00;92.70;;;;;;2098891;28;20119;-92
2021/10/12 04:39:12;;;;;;;3.03;0.60;;;11.00;92.70;;;;;;2086363;28;20040;-91
2021/10/12 04:40:31;;;;;;;3.60;0.85;;;11.00;92.70;;;;;;2100119;28;20476;-91
2021/10/12 04:41:51;;;;;;;2.88;0.60;;;11.00;92.70;;;;;;2096177;28;20119;-92
2021/10/12 04:43:10;;;;;;;1.77;0.70;;;11.00;92.70;;;;;;2102929;28;20048;-93
2021/10/12 04:44:29;;;;;;;2.05;0.90;;;11.00;92.70;;;;;;2106510;28;20036;-93
2021/10/12 04:45:48;;;;;;;4.80;1.00;;;11.00;92.70;;;;;;2107204;28;20040;-92
2021/10/12 04:47:11;;;;;;;3.63;0.88;;;11.00;92.70;;;;;;2110098;28;20040;-92
2021/10/12 04:48:30;;;;;;;1.73;0.75;;;11.00;92.70;;;;;;2108597;28;20028;-92
2021/10/12 04:49:50;;;;;;;2.45;0.65;;;11.10;92.70;;;;;;2106528;28;20047;-91
2021/10/12 04:51:09;;;;;;;1.95;0.60;;;11.10;92.70;;;;;;2111723;28;21901;-92
2021/10/12 04:52:28;;;;;;;2.10;0.73;;;11.10;92.70;;;;;;2101986;28;20518;-90
2021/10/12 04:53:47;;;;;;;1.88;0.70;;;11.10;92.70;;;;;;2090427;28;20048;-92
2021/10/12 04:55:07;;;;;;;1.23;0.50;;;11.10;92.70;;;;;;2091647;28;20514;-92
2021/10/12 04:56:26;;;;;;;3.10;0.70;;;11.10;92.70;;;;;;2104192;28;20032;-91
2021/10/12 04:57:45;;;;;;;1.58;0.60;;;11.10;92.70;;;;;;2103988;28;20071;-92
2021/10/12 04:59:05;;;;;;;2.53;0.73;;;11.10;92.70;;;;;;2096021;28;20036;-91
2021/10/12 05:00:24;;;;;;;2.75;0.80;;;11.10;92.70;;;;;;2101474;28;20426;-90
2021/10/12 05:01:44;;;;;;;3.33;0.70;;;11.10;92.70;;;;;;2108347;28;20429;-92
2021/10/12 05:03:03;;;;;;;2.05;0.70;;;11.10;92.70;;;;;;2089767;28;20049;-89
2021/10/12 05:04:23;;;;;;;2.53;0.70;;;11.10;92.60;;;;;;2096487;28;20040;-91
2021/10/12 05:05:42;;;;;;;2.42;0.60;;;11.10;92.70;;;;;;2095071;28;20025;-91
2021/10/12 05:07:02;;;;;;;3.00;0.80;;;11.10;92.70;;;;;;2086600;28;20036;-91
2021/10/12 05:08:21;;;;;;;2.78;0.70;;;11.10;92.70;;;;;;2103155;28;20044;-93
2021/10/12 05:09:40;;;;;;;2.08;0.70;;;11.10;92.70;;;;;;2106513;28;20036;-91
2021/10/12 05:10:59;;;;;;;3.08;0.80;;;11.10;92.70;;;;;;2110720;28;20497;-91
2021/10/12 05:12:18;;;;;;;1.88;0.60;;;11.10;92.70;;;;;;2114191;28;20032;-90
2021/10/12 05:13:38;;;;;;;2.28;0.70;;;11.10;92.70;;;;;;2115385;28;20047;-89
2021/10/12 05:14:57;;;;;;;2.80;0.80;;;11.10;92.70;;;;;;2106188;28;20044;-89
2021/10/12 05:16:16;;;;;;;2.35;0.77;;;11.10;92.70;;;;;;2096858;28;20048;-89
2021/10/12 05:17:37;;;;;;;2.05;0.65;;;11.10;92.70;;;;;;2102582;28;20036;-88
2021/10/12 05:18:59;;;;;;;2.60;0.75;;;11.10;92.70;;;;;;2106617;28;20079;-91
2021/10/12 05:20:19;;;;;;;3.25;0.70;;;11.10;92.70;;;;;;2103485;28;20044;-89
2021/10/12 05:21:38;;;;;;;4.03;0.90;;;11.20;92.70;;;;;;2112116;28;20051;-88
2021/10/12 05:22:58;;;;;;;3.03;0.90;;;11.10;92.70;;;;;;2085343;28;20037;-88
2021/10/12 05:24:17;;;;;;;2.20;0.80;;;11.10;92.70;;;;;;2100163;28;20040;-90
2021/10/12 05:25:37;;;;;;;3.97;0.82;;;11.10;92.70;;;;;;2102823;28;20040;-89
2021/10/12 05:26:56;;;;;;;2.28;0.80;;;11.10;92.70;;;;;;2110497;28;20052;-91
2021/10/12 05:28:17;;;;;;;2.63;0.75;;;11.10;92.70;;;;;;2109501;28;20123;-90
2021/10/12 05:29:36;;;;;;;3.00;0.70;;;11.10;92.70;;;;;;2104158;28;20071;-90
2021/10/12 05:30:55;;;;;;;4.90;0.95;;;11.10;92.70;;;;;;2112190;28;20027;-90
2021/10/12 05:32:15;;;;;;;2.75;0.70;;;11.10;92.80;;;;;;2099384;28;20028;-89
2021/10/12 05:33:34;;;;;;;2.00;0.90;;;11.10;92.70;;;;;;2093200;28;20032;-90
2021/10/12 05:34:56;;;;;;;2.25;1.00;;;11.10;92.80;;;;;;2088132;28;20446;-90
2021/10/12 05:36:16;;;;;;;2.50;0.70;;;11.10;92.80;;;;;;2097317;28;20550;-92
2021/10/12 05:37:36;;;;;;;1.98;0.80;;;11.10;93.00;;;;;;2112410;28;20035;-90
2021/10/12 05:38:55;;;;;;;2.65;0.88;;;11.10;92.80;;;;;;2107556;28;20048;-86
2021/10/12 05:40:14;;;;;;;2.38;0.80;;;11.10;92.80;;;;;;2099554;28;20032;-89
2021/10/12 05:41:33;;;;;;;2.03;0.70;;;11.10;92.80;;;;;;2083119;28;20049;-92
2021/10/12 05:42:53;;;;;;;2.92;1.00;;;11.10;92.80;;;;;;2104901;28;20114;-91
2021/10/12 05:44:12;;;;;;;3.80;0.90;;;11.10;92.80;;;;;;2098973;28;20040;-89
2021/10/12 05:45:33;;;;;;;1.90;0.77;;;11.10;92.80;;;;;;2101519;28;20036;-91
2021/10/12 05:46:52;;;;;;;2.30;0.80;;;11.00;92.80;;;;;;2100342;28;20048;-90
2021/10/12 05:48:12;;;;;;;4.15;0.90;;;11.10;92.80;;;;;;2095937;28;20448;-91
2021/10/12 05:49:31;;;;;;;3.53;0.80;;;11.10;92.90;;;;;;2104853;28;20040;-91
2021/10/12 05:50:50;;;;;;;3.17;1.10;;;11.10;92.90;;;;;;2108245;28;20066;-91
2021/10/12 05:52:13;;;;;;;3.03;1.20;;;11.10;92.90;;;;;;2108541;28;20418;-90
2021/10/12 05:53:46;;;;;;;2.78;1.00;;;11.10;92.90;;;;;;2098359;28;20044;-90
2021/10/12 05:55:10;;;;;;;2.85;0.90;;;11.10;92.90;;;;;;2106043;28;20432;-91
2021/10/12 05:56:42;;;;;;;4.75;1.08;;;11.10;92.90;;;;;;2115585;28;20035;-89
2021/10/12 05:58:08;;;;;;;3.20;1.10;;;11.10;92.90;;;;;;2108053;28;20106;-91
2021/10/12 05:59:27;;;;;;;3.28;1.05;;;11.10;92.90;;;;;;2099950;28;20045;-91
2021/10/12 06:00:46;;;;;;;2.40;0.95;;;11.10;92.90;;;;;;2094615;28;20076;-90
2021/10/12 06:02:06;;;;;;;2.63;1.00;;;11.10;92.90;;;;;;2092773;28;20076;-90
2021/10/12 06:03:26;;;;;;;4.00;1.00;;;11.10;92.90;;;;;;2104234;28;20486;-92
2021/10/12 06:04:45;;;;;;;2.78;1.00;;;11.10;92.90;;;;;;2099500;28;20174;-90
2021/10/12 06:06:05;;;;;;;3.25;1.13;;;11.10;92.90;;;;;;2088062;28;20041;-91
2021/10/12 06:07:25;;;;;;;3.17;1.30;;;11.20;92.90;;;;;;2104587;28;20036;-91
2021/10/12 06:08:44;;;;;;;3.42;1.05;;;11.20;92.90;;;;;;2099487;28;20036;-90
2021/10/12 06:10:04;;;;;;;2.95;1.20;;;11.10;92.90;;;;;;2096117;28;20119;-88
2021/10/12 06:11:23;;;;;;;3.42;1.27;;;11.10;92.90;;;;;;2107380;28;20039;-91
2021/10/12 06:12:42;;;;;;;4.13;1.30;;;11.20;92.90;;;;;;2108772;28;20040;-92
2021/10/12 06:14:01;;;;;;;2.75;1.38;;;11.10;92.90;;;;;;2112285;28;20075;-91
2021/10/12 06:15:21;;;;;;;3.50;1.48;;;11.10;92.90;;;;;;2112494;28;20044;-91
2021/10/12 06:16:40;;;;;;;2.83;1.40;;;11.20;93.00;;;;;;2113043;28;20115;-93
2021/10/12 06:18:00;;;;;;;2.53;1.50;;;11.20;93.00;;;;;;2100334;28;20072;-91
2021/10/12 06:19:19;;;;;;;2.45;1.40;;;11.20;93.00;;;;;;2094501;28;20056;-92
2021/10/12 06:20:38;;;;;;;2.90;1.58;;;11.20;92.90;;;;;;2085711;28;20030;-91
2021/10/12 06:21:57;;;;;;;3.28;1.90;;;11.20;92.90;;;;;;2115339;27;20035;-90
2021/10/12 06:23:17;;;;;;;2.97;1.70;;;11.20;92.90;;;;;;2113477;28;20048;-91
2021/10/12 06:24:37;;;;;;;3.42;1.77;;;11.30;92.90;;;;;;2103192;28;20425;-91
2021/10/12 06:25:56;;;;;;;5.22;2.00;;;11.20;92.90;;;;;;2089973;28;20029;-91
2021/10/12 06:27:15;;;;;;;4.15;1.77;;;11.20;92.90;;;;;;2101209;28;20044;-91
2021/10/12 06:28:34;;;;;;;4.03;1.80;;;11.20;92.90;;;;;;2112575;28;20509;-90
2021/10/12 06:29:53;;;;;;;3.72;1.80;;;11.20;92.90;;;;;;2098722;28;20534;-90
2021/10/12 06:31:14;;;;;;;4.97;1.95;;;11.30;92.90;;;;;;2088639;28;20045;-90
2021/10/12 06:32:33;;;;;;;4.00;2.05;;;11.30;92.90;;;;;;2104802;28;20040;-90
2021/10/12 06:33:53;;;;;;;4.20;2.22;;;11.30;92.90;;;;;;2106923;28;20068;-91
2021/10/12 06:35:12;;;;;;;5.65;2.10;;;11.30;92.90;;;;;;2105134;28;20044;-90
2021/10/12 06:36:31;;;;;;;3.58;2.00;;;11.30;92.90;;;;;;2100186;28;20040;-91
2021/10/12 06:37:50;;;;;;;3.97;2.05;;;11.30;92.90;;;;;;2092326;28;20499;-90
2021/10/12 06:39:10;;;;;;;4.88;2.30;;;11.30;92.90;;;;;;2103204;28;20122;-90
2021/10/12 06:40:30;;;;;;;4.43;2.00;;;11.40;93.00;;;;;;2111570;28;20036;-91
2021/10/12 06:41:49;;;;;;;4.82;2.25;;;11.30;93.00;;;;;;2109158;28;20044;-91
2021/10/12 06:43:09;;;;;;;4.32;2.38;;;11.40;93.00;;;;;;2102888;28;20502;-91
2021/10/12 06:44:28;;;;;;;3.13;1.90;;;11.40;93.00;;;;;;2107198;28;20505;-91
2021/10/12 06:45:47;;;;;;;4.18;2.08;;;11.40;93.00;;;;;;2099582;28;20045;-91
2021/10/12 06:47:06;;;;;;;7.05;2.90;;;11.40;93.00;;;;;;2099139;28;20055;-91
2021/10/12 06:48:26;;;;;;;4.53;2.20;;;11.40;93.00;;;;;;2096374;28;20036;-90
2021/10/12 06:49:45;;;;;;;4.55;2.40;;;11.40;93.00;;;;;;2092681;28;20040;-91
2021/10/12 06:51:05;;;;;;;3.95;2.40;;;11.40;93.00;;;;;;2098703;28;20044;-91
2021/10/12 06:52:24;;;;;;;4.22;2.22;;;11.40;93.00;;;;;;2108075;28;20048;-91
2021/10/12 06:53:46;;;;;;;4.32;2.55;;;11.40;93.00;;;;;;2098903;28;20494;-91
2021/10/12 06:55:08;;;;;;;4.70;2.70;;;11.40;93.00;;;;;;2099626;28;20040;-90